sensor_id;sensor_type;location;lat;lon;timestamp;P1;durP1;ratioP1;P2;durP2;ratioP2
36547;SDS011;22551;52.206;4.856;2022-11-20T00:02:53;13.80;;;6.40;;
36547;SDS011;22551;52.206;4.856;2022-11-20T00:07:57;14.93;;;6.47;;
36547;SDS011;22551;52.206;4.856;2022-11-20T00:13:00;13.70;;;5.63;;
36547;SDS011;22551;52.206;4.856;2022-11-20T00:18:02;11.77;;;6.45;;
36547;SDS011;22551;52.206;4.856;2022-11-20T00:23:05;17.65;;;6.60;;
36547;SDS011;22551;52.206;4.856;2022-11-20T00:28:08;15.85;;;7.30;;
36547;SDS011;22551;52.206;4.856;2022-11-20T00:33:10;14.20;;;6.82;;
36547;SDS011;22551;52.206;4.856;2022-11-20T00:38:13;14.60;;;6.20;;
36547;SDS011;22551;52.206;4.856;2022-11-20T00:43:16;18.10;;;6.63;;
36547;SDS011;22551;52.206;4.856;2022-11-20T00:48:18;17.48;;;7.55;;
36547;SDS011;22551;52.206;4.856;2022-11-20T00:53:21;13.18;;;6.90;;
36547;SDS011;22551;52.206;4.856;2022-11-20T00:58:24;15.05;;;7.40;;
36547;SDS011;22551;52.206;4.856;2022-11-20T01:03:33;16.90;;;6.82;;
36547;SDS011;22551;52.206;4.856;2022-11-20T01:08:38;12.57;;;6.05;;
36547;SDS011;22551;52.206;4.856;2022-11-20T01:13:41;15.20;;;6.50;;
36547;SDS011;22551;52.206;4.856;2022-11-20T01:18:46;10.80;;;4.93;;
36547;SDS011;22551;52.206;4.856;2022-11-20T01:23:52;13.20;;;5.57;;
36547;SDS011;22551;52.206;4.856;2022-11-20T01:28:55;11.55;;;5.95;;
36547;SDS011;22551;52.206;4.856;2022-11-20T01:33:59;12.05;;;5.50;;
36547;SDS011;22551;52.206;4.856;2022-11-20T01:44:51;16.63;;;5.93;;
36547;SDS011;22551;52.206;4.856;2022-11-20T01:49:56;12.25;;;6.00;;
36547;SDS011;22551;52.206;4.856;2022-11-20T01:55:07;11.55;;;4.63;;
36547;SDS011;22551;52.206;4.856;2022-11-20T02:00:16;14.57;;;6.65;;
36547;SDS011;22551;52.206;4.856;2022-11-20T02:05:22;11.18;;;5.47;;
36547;SDS011;22551;52.206;4.856;2022-11-20T02:10:33;12.57;;;5.82;;
36547;SDS011;22551;52.206;4.856;2022-11-20T02:15:35;13.00;;;6.10;;
36547;SDS011;22551;52.206;4.856;2022-11-20T02:20:37;16.38;;;6.10;;
36547;SDS011;22551;52.206;4.856;2022-11-20T02:25:43;14.88;;;5.63;;
36547;SDS011;22551;52.206;4.856;2022-11-20T02:30:47;13.07;;;5.75;;
36547;SDS011;22551;52.206;4.856;2022-11-20T02:35:49;14.55;;;5.63;;
36547;SDS011;22551;52.206;4.856;2022-11-20T02:40:53;13.25;;;5.28;;
36547;SDS011;22551;52.206;4.856;2022-11-20T02:45:55;15.98;;;5.60;;
36547;SDS011;22551;52.206;4.856;2022-11-20T02:50:57;12.30;;;4.90;;
36547;SDS011;22551;52.206;4.856;2022-11-20T02:56:01;14.50;;;5.85;;
36547;SDS011;22551;52.206;4.856;2022-11-20T03:01:03;13.07;;;5.75;;
36547;SDS011;22551;52.206;4.856;2022-11-20T03:06:05;15.75;;;6.45;;
36547;SDS011;22551;52.206;4.856;2022-11-20T03:11:10;15.95;;;6.30;;
36547;SDS011;22551;52.206;4.856;2022-11-20T03:16:13;15.38;;;6.85;;
36547;SDS011;22551;52.206;4.856;2022-11-20T03:21:17;14.63;;;6.25;;
36547;SDS011;22551;52.206;4.856;2022-11-20T03:26:22;15.27;;;6.18;;
36547;SDS011;22551;52.206;4.856;2022-11-20T03:31:26;13.02;;;5.70;;
36547;SDS011;22551;52.206;4.856;2022-11-20T03:36:30;15.95;;;6.15;;
36547;SDS011;22551;52.206;4.856;2022-11-20T03:41:37;12.82;;;5.85;;
36547;SDS011;22551;52.206;4.856;2022-11-20T03:46:40;15.35;;;6.18;;
36547;SDS011;22551;52.206;4.856;2022-11-20T03:51:43;14.10;;;6.47;;
36547;SDS011;22551;52.206;4.856;2022-11-20T03:56:48;13.65;;;6.07;;
36547;SDS011;22551;52.206;4.856;2022-11-20T04:01:50;11.05;;;5.60;;
36547;SDS011;22551;52.206;4.856;2022-11-20T04:06:52;14.88;;;6.57;;
36547;SDS011;22551;52.206;4.856;2022-11-20T04:11:55;14.27;;;6.75;;
36547;SDS011;22551;52.206;4.856;2022-11-20T04:16:57;14.02;;;6.00;;
36547;SDS011;22551;52.206;4.856;2022-11-20T04:22:00;11.18;;;5.90;;
36547;SDS011;22551;52.206;4.856;2022-11-20T04:27:04;14.88;;;5.88;;
36547;SDS011;22551;52.206;4.856;2022-11-20T04:32:06;17.00;;;7.07;;
36547;SDS011;22551;52.206;4.856;2022-11-20T04:37:10;14.13;;;6.47;;
36547;SDS011;22551;52.206;4.856;2022-11-20T04:42:14;16.52;;;6.63;;
36547;SDS011;22551;52.206;4.856;2022-11-20T04:47:31;13.25;;;5.78;;
36547;SDS011;22551;52.206;4.856;2022-11-20T04:52:35;15.95;;;7.05;;
36547;SDS011;22551;52.206;4.856;2022-11-20T04:57:38;14.82;;;6.32;;
36547;SDS011;22551;52.206;4.856;2022-11-20T05:02:41;19.38;;;6.80;;
36547;SDS011;22551;52.206;4.856;2022-11-20T05:07:43;18.25;;;6.95;;
36547;SDS011;22551;52.206;4.856;2022-11-20T05:12:47;14.65;;;7.22;;
36547;SDS011;22551;52.206;4.856;2022-11-20T05:17:49;16.00;;;6.40;;
36547;SDS011;22551;52.206;4.856;2022-11-20T05:22:53;15.57;;;6.53;;
36547;SDS011;22551;52.206;4.856;2022-11-20T05:27:59;13.45;;;5.88;;
36547;SDS011;22551;52.206;4.856;2022-11-20T05:33:02;15.93;;;6.38;;
36547;SDS011;22551;52.206;4.856;2022-11-20T05:38:04;17.17;;;6.43;;
36547;SDS011;22551;52.206;4.856;2022-11-20T05:43:07;15.15;;;6.38;;
36547;SDS011;22551;52.206;4.856;2022-11-20T05:48:10;16.48;;;6.75;;
36547;SDS011;22551;52.206;4.856;2022-11-20T05:53:12;19.65;;;7.53;;
36547;SDS011;22551;52.206;4.856;2022-11-20T05:58:16;16.35;;;6.93;;
36547;SDS011;22551;52.206;4.856;2022-11-20T06:03:19;15.45;;;6.82;;
36547;SDS011;22551;52.206;4.856;2022-11-20T06:08:21;15.77;;;7.00;;
36547;SDS011;22551;52.206;4.856;2022-11-20T06:13:25;17.65;;;7.07;;
36547;SDS011;22551;52.206;4.856;2022-11-20T06:18:28;13.05;;;6.90;;
36547;SDS011;22551;52.206;4.856;2022-11-20T06:23:31;13.30;;;6.78;;
36547;SDS011;22551;52.206;4.856;2022-11-20T06:28:36;12.57;;;5.93;;
36547;SDS011;22551;52.206;4.856;2022-11-20T06:33:39;21.55;;;8.18;;
36547;SDS011;22551;52.206;4.856;2022-11-20T06:38:41;18.35;;;6.80;;
36547;SDS011;22551;52.206;4.856;2022-11-20T06:43:47;17.48;;;7.68;;
36547;SDS011;22551;52.206;4.856;2022-11-20T06:48:49;15.77;;;6.95;;
36547;SDS011;22551;52.206;4.856;2022-11-20T06:53:52;18.70;;;8.38;;
36547;SDS011;22551;52.206;4.856;2022-11-20T06:58:56;18.48;;;7.22;;
36547;SDS011;22551;52.206;4.856;2022-11-20T07:03:58;22.77;;;9.63;;
36547;SDS011;22551;52.206;4.856;2022-11-20T07:09:01;17.05;;;8.02;;
36547;SDS011;22551;52.206;4.856;2022-11-20T07:14:04;18.02;;;8.80;;
36547;SDS011;22551;52.206;4.856;2022-11-20T07:19:06;20.73;;;8.68;;
36547;SDS011;22551;52.206;4.856;2022-11-20T07:24:08;17.20;;;8.07;;
36547;SDS011;22551;52.206;4.856;2022-11-20T07:29:12;19.85;;;8.27;;
36547;SDS011;22551;52.206;4.856;2022-11-20T07:34:14;17.95;;;8.35;;
36547;SDS011;22551;52.206;4.856;2022-11-20T07:39:16;22.40;;;8.05;;
36547;SDS011;22551;52.206;4.856;2022-11-20T07:44:20;14.48;;;7.25;;
36547;SDS011;22551;52.206;4.856;2022-11-20T07:49:22;19.52;;;8.52;;
36547;SDS011;22551;52.206;4.856;2022-11-20T07:54:27;19.17;;;7.50;;
36547;SDS011;22551;52.206;4.856;2022-11-20T07:59:33;18.60;;;8.23;;
36547;SDS011;22551;52.206;4.856;2022-11-20T08:04:35;17.88;;;8.40;;
36547;SDS011;22551;52.206;4.856;2022-11-20T08:09:38;16.30;;;8.30;;
36547;SDS011;22551;52.206;4.856;2022-11-20T08:14:42;20.92;;;9.02;;
36547;SDS011;22551;52.206;4.856;2022-11-20T08:19:44;17.42;;;8.38;;
36547;SDS011;22551;52.206;4.856;2022-11-20T08:24:46;22.85;;;10.45;;
36547;SDS011;22551;52.206;4.856;2022-11-20T08:29:50;25.35;;;10.27;;
36547;SDS011;22551;52.206;4.856;2022-11-20T08:34:52;29.13;;;11.57;;
36547;SDS011;22551;52.206;4.856;2022-11-20T08:39:54;24.40;;;9.88;;
36547;SDS011;22551;52.206;4.856;2022-11-20T08:44:58;23.20;;;10.00;;
36547;SDS011;22551;52.206;4.856;2022-11-20T08:50:01;24.50;;;9.98;;
36547;SDS011;22551;52.206;4.856;2022-11-20T08:55:03;23.27;;;9.82;;
36547;SDS011;22551;52.206;4.856;2022-11-20T09:00:10;25.03;;;10.60;;
36547;SDS011;22551;52.206;4.856;2022-11-20T09:05:14;21.52;;;10.00;;
36547;SDS011;22551;52.206;4.856;2022-11-20T09:10:17;21.98;;;10.23;;
36547;SDS011;22551;52.206;4.856;2022-11-20T09:15:21;22.33;;;10.88;;
36547;SDS011;22551;52.206;4.856;2022-11-20T09:20:24;21.33;;;10.85;;
36547;SDS011;22551;52.206;4.856;2022-11-20T09:25:27;24.73;;;10.45;;
36547;SDS011;22551;52.206;4.856;2022-11-20T09:30:31;24.00;;;11.25;;
36547;SDS011;22551;52.206;4.856;2022-11-20T09:35:34;21.85;;;10.77;;
36547;SDS011;22551;52.206;4.856;2022-11-20T09:40:39;20.92;;;9.73;;
36547;SDS011;22551;52.206;4.856;2022-11-20T09:45:56;22.13;;;11.20;;
36547;SDS011;22551;52.206;4.856;2022-11-20T09:51:13;21.88;;;10.95;;
36547;SDS011;22551;52.206;4.856;2022-11-20T09:56:29;25.90;;;11.85;;
36547;SDS011;22551;52.206;4.856;2022-11-20T10:01:35;26.67;;;11.80;;
36547;SDS011;22551;52.206;4.856;2022-11-20T10:06:41;22.40;;;10.70;;
36547;SDS011;22551;52.206;4.856;2022-11-20T10:12:10;21.20;;;10.02;;
36547;SDS011;22551;52.206;4.856;2022-11-20T10:17:21;20.23;;;10.32;;
36547;SDS011;22551;52.206;4.856;2022-11-20T10:22:43;29.15;;;11.07;;
36547;SDS011;22551;52.206;4.856;2022-11-20T10:28:10;24.80;;;11.65;;
36547;SDS011;22551;52.206;4.856;2022-11-20T10:33:31;18.83;;;9.35;;
36547;SDS011;22551;52.206;4.856;2022-11-20T10:38:38;24.13;;;10.85;;
36547;SDS011;22551;52.206;4.856;2022-11-20T10:43:46;27.85;;;12.13;;
36547;SDS011;22551;52.206;4.856;2022-11-20T10:48:51;25.73;;;12.65;;
36547;SDS011;22551;52.206;4.856;2022-11-20T10:53:55;22.08;;;11.23;;
36547;SDS011;22551;52.206;4.856;2022-11-20T10:59:32;25.75;;;11.85;;
36547;SDS011;22551;52.206;4.856;2022-11-20T11:04:45;22.90;;;11.32;;
36547;SDS011;22551;52.206;4.856;2022-11-20T11:09:49;27.77;;;13.60;;
36547;SDS011;22551;52.206;4.856;2022-11-20T11:14:55;27.83;;;13.05;;
36547;SDS011;22551;52.206;4.856;2022-11-20T11:25:37;37.78;;;17.08;;
36547;SDS011;22551;52.206;4.856;2022-11-20T11:30:43;30.10;;;14.93;;
36547;SDS011;22551;52.206;4.856;2022-11-20T11:35:49;25.08;;;12.40;;
36547;SDS011;22551;52.206;4.856;2022-11-20T11:40:58;25.05;;;12.68;;
36547;SDS011;22551;52.206;4.856;2022-11-20T11:46:00;32.78;;;14.02;;
36547;SDS011;22551;52.206;4.856;2022-11-20T11:51:07;29.58;;;13.93;;
36547;SDS011;22551;52.206;4.856;2022-11-20T11:56:12;31.88;;;13.93;;
36547;SDS011;22551;52.206;4.856;2022-11-20T12:01:22;33.75;;;15.20;;
36547;SDS011;22551;52.206;4.856;2022-11-20T12:06:32;39.90;;;16.52;;
36547;SDS011;22551;52.206;4.856;2022-11-20T12:11:43;29.13;;;13.75;;
36547;SDS011;22551;52.206;4.856;2022-11-20T12:16:50;37.58;;;15.57;;
36547;SDS011;22551;52.206;4.856;2022-11-20T12:21:57;35.13;;;15.32;;
36547;SDS011;22551;52.206;4.856;2022-11-20T12:27:14;39.92;;;16.50;;
36547;SDS011;22551;52.206;4.856;2022-11-20T12:32:55;38.88;;;16.38;;
36547;SDS011;22551;52.206;4.856;2022-11-20T12:38:34;43.58;;;15.88;;
36547;SDS011;22551;52.206;4.856;2022-11-20T12:43:54;40.72;;;16.95;;
36547;SDS011;22551;52.206;4.856;2022-11-20T12:49:27;43.35;;;15.45;;
36547;SDS011;22551;52.206;4.856;2022-11-20T13:00:26;37.87;;;15.80;;
36547;SDS011;22551;52.206;4.856;2022-11-20T13:05:31;39.53;;;16.23;;
36547;SDS011;22551;52.206;4.856;2022-11-20T13:10:49;44.00;;;15.43;;
36547;SDS011;22551;52.206;4.856;2022-11-20T13:16:02;38.67;;;16.13;;
36547;SDS011;22551;52.206;4.856;2022-11-20T13:21:15;41.35;;;15.82;;
36547;SDS011;22551;52.206;4.856;2022-11-20T13:26:20;45.20;;;16.45;;
36547;SDS011;22551;52.206;4.856;2022-11-20T13:31:28;40.08;;;16.30;;
36547;SDS011;22551;52.206;4.856;2022-11-20T13:36:35;38.15;;;16.58;;
36547;SDS011;22551;52.206;4.856;2022-11-20T13:41:37;39.20;;;15.90;;
36547;SDS011;22551;52.206;4.856;2022-11-20T13:46:44;38.80;;;16.00;;
36547;SDS011;22551;52.206;4.856;2022-11-20T13:56:54;39.45;;;15.98;;
36547;SDS011;22551;52.206;4.856;2022-11-20T14:02:10;41.17;;;17.33;;
36547;SDS011;22551;52.206;4.856;2022-11-20T14:07:14;40.00;;;15.77;;
36547;SDS011;22551;52.206;4.856;2022-11-20T14:12:18;42.85;;;17.25;;
36547;SDS011;22551;52.206;4.856;2022-11-20T14:17:31;43.88;;;19.33;;
36547;SDS011;22551;52.206;4.856;2022-11-20T14:22:36;44.10;;;17.58;;
36547;SDS011;22551;52.206;4.856;2022-11-20T14:27:39;41.63;;;17.92;;
36547;SDS011;22551;52.206;4.856;2022-11-20T14:32:45;46.47;;;20.17;;
36547;SDS011;22551;52.206;4.856;2022-11-20T14:37:48;44.27;;;19.07;;
36547;SDS011;22551;52.206;4.856;2022-11-20T14:42:51;43.35;;;19.02;;
36547;SDS011;22551;52.206;4.856;2022-11-20T14:47:55;43.20;;;18.23;;
36547;SDS011;22551;52.206;4.856;2022-11-20T14:53:01;50.65;;;18.45;;
36547;SDS011;22551;52.206;4.856;2022-11-20T14:58:04;47.75;;;18.70;;
36547;SDS011;22551;52.206;4.856;2022-11-20T15:03:15;57.53;;;20.13;;
36547;SDS011;22551;52.206;4.856;2022-11-20T15:08:17;46.40;;;19.73;;
36547;SDS011;22551;52.206;4.856;2022-11-20T15:13:24;44.38;;;18.00;;
36547;SDS011;22551;52.206;4.856;2022-11-20T15:18:36;44.72;;;19.10;;
36547;SDS011;22551;52.206;4.856;2022-11-20T15:23:41;54.35;;;19.35;;
36547;SDS011;22551;52.206;4.856;2022-11-20T15:28:44;70.55;;;29.50;;
36547;SDS011;22551;52.206;4.856;2022-11-20T15:33:51;93.55;;;36.03;;
36547;SDS011;22551;52.206;4.856;2022-11-20T15:38:53;75.97;;;29.15;;
36547;SDS011;22551;52.206;4.856;2022-11-20T15:43:55;57.85;;;23.98;;
36547;SDS011;22551;52.206;4.856;2022-11-20T15:48:59;50.17;;;20.77;;
36547;SDS011;22551;52.206;4.856;2022-11-20T15:54:05;65.05;;;26.55;;
36547;SDS011;22551;52.206;4.856;2022-11-20T15:59:13;53.83;;;21.88;;
36547;SDS011;22551;52.206;4.856;2022-11-20T16:04:17;47.08;;;19.38;;
36547;SDS011;22551;52.206;4.856;2022-11-20T16:09:19;31.83;;;14.55;;
36547;SDS011;22551;52.206;4.856;2022-11-20T16:14:21;54.47;;;22.27;;
36547;SDS011;22551;52.206;4.856;2022-11-20T16:19:42;43.42;;;19.23;;
36547;SDS011;22551;52.206;4.856;2022-11-20T16:24:44;41.60;;;18.33;;
36547;SDS011;22551;52.206;4.856;2022-11-20T16:29:47;35.83;;;16.33;;
36547;SDS011;22551;52.206;4.856;2022-11-20T16:34:50;35.78;;;16.70;;
36547;SDS011;22551;52.206;4.856;2022-11-20T16:39:52;36.08;;;16.05;;
36547;SDS011;22551;52.206;4.856;2022-11-20T16:44:56;35.15;;;14.98;;
36547;SDS011;22551;52.206;4.856;2022-11-20T16:49:59;39.33;;;15.82;;
36547;SDS011;22551;52.206;4.856;2022-11-20T16:55:02;34.80;;;15.73;;
36547;SDS011;22551;52.206;4.856;2022-11-20T17:00:05;27.40;;;13.80;;
36547;SDS011;22551;52.206;4.856;2022-11-20T17:05:10;34.92;;;15.55;;
36547;SDS011;22551;52.206;4.856;2022-11-20T17:10:13;32.70;;;14.68;;
36547;SDS011;22551;52.206;4.856;2022-11-20T17:15:15;30.17;;;13.52;;
36547;SDS011;22551;52.206;4.856;2022-11-20T17:20:19;32.35;;;16.35;;
36547;SDS011;22551;52.206;4.856;2022-11-20T17:25:26;30.58;;;15.30;;
36547;SDS011;22551;52.206;4.856;2022-11-20T17:30:29;30.70;;;15.23;;
36547;SDS011;22551;52.206;4.856;2022-11-20T17:35:33;34.03;;;16.45;;
36547;SDS011;22551;52.206;4.856;2022-11-20T17:40:36;33.55;;;14.50;;
36547;SDS011;22551;52.206;4.856;2022-11-20T17:45:40;34.65;;;15.07;;
36547;SDS011;22551;52.206;4.856;2022-11-20T17:50:45;32.50;;;15.30;;
36547;SDS011;22551;52.206;4.856;2022-11-20T17:55:53;36.55;;;16.77;;
36547;SDS011;22551;52.206;4.856;2022-11-20T18:01:13;36.33;;;16.77;;
36547;SDS011;22551;52.206;4.856;2022-11-20T18:06:19;34.05;;;17.48;;
36547;SDS011;22551;52.206;4.856;2022-11-20T18:16:51;33.45;;;14.75;;
36547;SDS011;22551;52.206;4.856;2022-11-20T18:21:57;30.88;;;14.35;;
36547;SDS011;22551;52.206;4.856;2022-11-20T18:27:00;31.52;;;14.57;;
36547;SDS011;22551;52.206;4.856;2022-11-20T18:32:03;31.10;;;14.65;;
36547;SDS011;22551;52.206;4.856;2022-11-20T18:37:14;31.45;;;15.65;;
36547;SDS011;22551;52.206;4.856;2022-11-20T18:42:17;27.10;;;13.90;;
36547;SDS011;22551;52.206;4.856;2022-11-20T18:47:37;32.63;;;15.55;;
36547;SDS011;22551;52.206;4.856;2022-11-20T18:52:43;36.03;;;15.52;;
36547;SDS011;22551;52.206;4.856;2022-11-20T19:03:48;38.05;;;18.50;;
36547;SDS011;22551;52.206;4.856;2022-11-20T19:08:52;32.83;;;17.30;;
36547;SDS011;22551;52.206;4.856;2022-11-20T19:13:55;30.35;;;15.38;;
36547;SDS011;22551;52.206;4.856;2022-11-20T19:18:59;41.95;;;20.27;;
36547;SDS011;22551;52.206;4.856;2022-11-20T19:24:03;35.83;;;18.45;;
36547;SDS011;22551;52.206;4.856;2022-11-20T19:29:11;37.75;;;17.40;;
36547;SDS011;22551;52.206;4.856;2022-11-20T19:34:14;49.43;;;26.17;;
36547;SDS011;22551;52.206;4.856;2022-11-20T19:39:18;41.47;;;20.10;;
36547;SDS011;22551;52.206;4.856;2022-11-20T19:44:23;49.88;;;24.92;;
36547;SDS011;22551;52.206;4.856;2022-11-20T19:49:31;39.97;;;20.30;;
36547;SDS011;22551;52.206;4.856;2022-11-20T19:54:35;53.60;;;28.67;;
36547;SDS011;22551;52.206;4.856;2022-11-20T19:59:39;41.97;;;20.98;;
36547;SDS011;22551;52.206;4.856;2022-11-20T20:04:43;50.03;;;25.45;;
36547;SDS011;22551;52.206;4.856;2022-11-20T20:09:47;51.83;;;23.95;;
36547;SDS011;22551;52.206;4.856;2022-11-20T20:14:50;42.30;;;21.23;;
36547;SDS011;22551;52.206;4.856;2022-11-20T20:19:53;47.67;;;24.42;;
36547;SDS011;22551;52.206;4.856;2022-11-20T20:24:56;38.35;;;20.40;;
36547;SDS011;22551;52.206;4.856;2022-11-20T20:29:58;46.10;;;22.75;;
36547;SDS011;22551;52.206;4.856;2022-11-20T20:35:02;51.08;;;24.13;;
36547;SDS011;22551;52.206;4.856;2022-11-20T20:40:08;37.17;;;17.75;;
36547;SDS011;22551;52.206;4.856;2022-11-20T20:45:11;49.63;;;21.08;;
36547;SDS011;22551;52.206;4.856;2022-11-20T20:50:14;35.90;;;17.70;;
36547;SDS011;22551;52.206;4.856;2022-11-20T20:55:18;42.42;;;20.30;;
36547;SDS011;22551;52.206;4.856;2022-11-20T21:00:20;35.35;;;16.77;;
36547;SDS011;22551;52.206;4.856;2022-11-20T21:05:24;42.75;;;20.60;;
36547;SDS011;22551;52.206;4.856;2022-11-20T21:10:28;42.08;;;18.60;;
36547;SDS011;22551;52.206;4.856;2022-11-20T21:15:30;34.75;;;16.92;;
36547;SDS011;22551;52.206;4.856;2022-11-20T21:20:32;30.70;;;15.13;;
36547;SDS011;22551;52.206;4.856;2022-11-20T21:25:55;34.65;;;16.27;;
36547;SDS011;22551;52.206;4.856;2022-11-20T21:31:07;36.35;;;16.00;;
36547;SDS011;22551;52.206;4.856;2022-11-20T21:36:13;38.65;;;15.60;;
36547;SDS011;22551;52.206;4.856;2022-11-20T21:41:19;33.55;;;16.33;;
36547;SDS011;22551;52.206;4.856;2022-11-20T21:46:22;35.83;;;17.05;;
36547;SDS011;22551;52.206;4.856;2022-11-20T21:51:25;32.25;;;15.77;;
36547;SDS011;22551;52.206;4.856;2022-11-20T21:56:30;42.20;;;16.52;;
36547;SDS011;22551;52.206;4.856;2022-11-20T22:01:32;38.38;;;16.75;;
36547;SDS011;22551;52.206;4.856;2022-11-20T22:06:34;41.80;;;17.77;;
36547;SDS011;22551;52.206;4.856;2022-11-20T22:11:37;37.90;;;16.50;;
36547;SDS011;22551;52.206;4.856;2022-11-20T22:16:40;33.22;;;15.07;;
36547;SDS011;22551;52.206;4.856;2022-11-20T22:21:42;34.30;;;16.95;;
36547;SDS011;22551;52.206;4.856;2022-11-20T22:26:46;33.55;;;16.13;;
36547;SDS011;22551;52.206;4.856;2022-11-20T22:31:50;37.65;;;16.38;;
36547;SDS011;22551;52.206;4.856;2022-11-20T22:36:53;40.72;;;17.75;;
36547;SDS011;22551;52.206;4.856;2022-11-20T22:41:56;44.45;;;17.77;;
36547;SDS011;22551;52.206;4.856;2022-11-20T22:46:58;33.75;;;15.98;;
36547;SDS011;22551;52.206;4.856;2022-11-20T22:52:00;39.20;;;18.30;;
36547;SDS011;22551;52.206;4.856;2022-11-20T22:57:04;37.70;;;17.08;;
36547;SDS011;22551;52.206;4.856;2022-11-20T23:02:06;35.88;;;16.92;;
36547;SDS011;22551;52.206;4.856;2022-11-20T23:07:08;35.25;;;16.52;;
36547;SDS011;22551;52.206;4.856;2022-11-20T23:12:11;41.58;;;16.60;;
36547;SDS011;22551;52.206;4.856;2022-11-20T23:17:13;43.45;;;18.70;;
36547;SDS011;22551;52.206;4.856;2022-11-20T23:22:16;48.55;;;20.10;;
36547;SDS011;22551;52.206;4.856;2022-11-20T23:27:22;38.90;;;16.87;;
36547;SDS011;22551;52.206;4.856;2022-11-20T23:32:24;47.58;;;18.55;;
36547;SDS011;22551;52.206;4.856;2022-11-20T23:37:26;40.88;;;17.77;;
36547;SDS011;22551;52.206;4.856;2022-11-20T23:42:30;42.08;;;18.98;;
36547;SDS011;22551;52.206;4.856;2022-11-20T23:47:32;45.92;;;20.25;;
36547;SDS011;22551;52.206;4.856;2022-11-20T23:52:34;44.50;;;18.52;;
36547;SDS011;22551;52.206;4.856;2022-11-20T23:57:38;43.95;;;18.60;;
